sensor_id;sensor_type;location;lat;lon;timestamp;pressure;altitude;pressure_sealevel;temperature;humidity
57616;BME280;43816;52.054;-9.494;2022-07-29T00:00:07;101198.84;;;21.15;54.92
57616;BME280;43816;52.054;-9.494;2022-07-29T00:00:18;101194.38;;;21.14;54.96
57616;BME280;43816;52.054;-9.494;2022-07-29T00:00:28;101195.22;;;21.15;55.04
57616;BME280;43816;52.054;-9.494;2022-07-29T00:00:39;101197.97;;;21.15;55.08
57616;BME280;43816;52.054;-9.494;2022-07-29T00:00:49;101197.97;;;21.15;55.26
57616;BME280;43816;52.054;-9.494;2022-07-29T00:00:59;101199.84;;;21.14;54.93
57616;BME280;43816;52.054;-9.494;2022-07-29T00:01:14;101199.00;;;21.14;55.20
57616;BME280;43816;52.054;-9.494;2022-07-29T00:01:25;101197.97;;;21.15;55.62
57616;BME280;43816;52.054;-9.494;2022-07-29T00:01:35;101200.69;;;21.15;54.80
57616;BME280;43816;52.054;-9.494;2022-07-29T00:01:45;101195.41;;;21.13;55.00
57616;BME280;43816;52.054;-9.494;2022-07-29T00:01:56;101204.47;;;21.14;55.15
57616;BME280;43816;52.054;-9.494;2022-07-29T00:02:06;101200.03;;;21.13;55.00
57616;BME280;43816;52.054;-9.494;2022-07-29T00:02:16;101197.28;;;21.13;55.04
57616;BME280;43816;52.054;-9.494;2022-07-29T00:02:27;101207.22;;;21.14;54.92
57616;BME280;43816;52.054;-9.494;2022-07-29T00:02:37;101200.88;;;21.13;54.98
57616;BME280;43816;52.054;-9.494;2022-07-29T00:02:48;101192.66;;;21.13;55.15
57616;BME280;43816;52.054;-9.494;2022-07-29T00:02:58;101200.03;;;21.13;54.82
57616;BME280;43816;52.054;-9.494;2022-07-29T00:03:08;101195.59;;;21.12;55.40
57616;BME280;43816;52.054;-9.494;2022-07-29T00:03:19;101194.72;;;21.11;55.20
57616;BME280;43816;52.054;-9.494;2022-07-29T00:03:29;101186.69;;;21.10;55.09
57616;BME280;43816;52.054;-9.494;2022-07-29T00:03:39;101197.47;;;21.11;54.96
57616;BME280;43816;52.054;-9.494;2022-07-29T00:03:49;101191.16;;;21.11;54.91
57616;BME280;43816;52.054;-9.494;2022-07-29T00:04:00;101195.78;;;21.10;55.04
57616;BME280;43816;52.054;-9.494;2022-07-29T00:04:10;101197.66;;;21.10;55.17
57616;BME280;43816;52.054;-9.494;2022-07-29T00:04:21;101195.78;;;21.10;55.17
57616;BME280;43816;52.054;-9.494;2022-07-29T00:04:34;101191.16;;;21.11;55.17
57616;BME280;43816;52.054;-9.494;2022-07-29T00:04:45;101199.34;;;21.11;55.12
57616;BME280;43816;52.054;-9.494;2022-07-29T00:04:55;101191.16;;;21.11;54.87
57616;BME280;43816;52.054;-9.494;2022-07-29T00:05:06;101195.78;;;21.10;55.12
57616;BME280;43816;52.054;-9.494;2022-07-29T00:05:17;101195.78;;;21.10;55.02
57616;BME280;43816;52.054;-9.494;2022-07-29T00:05:28;101191.16;;;21.11;54.96
57616;BME280;43816;52.054;-9.494;2022-07-29T00:05:39;101201.09;;;21.12;55.11
57616;BME280;43816;52.054;-9.494;2022-07-29T00:05:50;101194.56;;;21.13;54.90
57616;BME280;43816;52.054;-9.494;2022-07-29T00:06:00;101197.47;;;21.11;55.20
57616;BME280;43816;52.054;-9.494;2022-07-29T00:06:10;101192.00;;;21.11;55.09
57616;BME280;43816;52.054;-9.494;2022-07-29T00:06:21;101197.47;;;21.11;55.18
57616;BME280;43816;52.054;-9.494;2022-07-29T00:06:31;101201.09;;;21.12;55.17
57616;BME280;43816;52.054;-9.494;2022-07-29T00:06:41;101194.72;;;21.11;54.87
57616;BME280;43816;52.054;-9.494;2022-07-29T00:06:51;101199.34;;;21.11;54.97
57616;BME280;43816;52.054;-9.494;2022-07-29T00:07:03;101199.34;;;21.11;54.97
57616;BME280;43816;52.054;-9.494;2022-07-29T00:07:14;101195.78;;;21.10;54.97
57616;BME280;43816;52.054;-9.494;2022-07-29T00:07:24;101202.09;;;21.11;55.22
57616;BME280;43816;52.054;-9.494;2022-07-29T00:07:34;101209.63;;;21.09;54.99
57616;BME280;43816;52.054;-9.494;2022-07-29T00:07:45;101196.97;;;21.07;55.25
57616;BME280;43816;52.054;-9.494;2022-07-29T00:07:55;101195.25;;;21.06;55.16
57616;BME280;43816;52.054;-9.494;2022-07-29T00:08:06;101205.84;;;21.10;55.03
57616;BME280;43816;52.054;-9.494;2022-07-29T00:08:16;101197.81;;;21.08;55.00
57616;BME280;43816;52.054;-9.494;2022-07-29T00:08:26;101194.25;;;21.07;54.96
57616;BME280;43816;52.054;-9.494;2022-07-29T00:08:37;101198.69;;;21.09;55.03
57616;BME280;43816;52.054;-9.494;2022-07-29T00:08:47;101192.34;;;21.08;54.88
57616;BME280;43816;52.054;-9.494;2022-07-29T00:08:57;101195.25;;;21.06;55.09
57616;BME280;43816;52.054;-9.494;2022-07-29T00:09:08;101194.41;;;21.06;55.11
57616;BME280;43816;52.054;-9.494;2022-07-29T00:09:18;101192.53;;;21.06;55.03
57616;BME280;43816;52.054;-9.494;2022-07-29T00:09:28;101192.53;;;21.06;54.88
57616;BME280;43816;52.054;-9.494;2022-07-29T00:09:39;101201.59;;;21.07;55.03
57616;BME280;43816;52.054;-9.494;2022-07-29T00:09:49;101203.47;;;21.06;55.03
57616;BME280;43816;52.054;-9.494;2022-07-29T00:09:59;101196.97;;;21.07;55.08
57616;BME280;43816;52.054;-9.494;2022-07-29T00:10:10;101196.13;;;21.07;55.21
57616;BME280;43816;52.054;-9.494;2022-07-29T00:10:20;101198.00;;;21.06;55.04
57616;BME280;43816;52.054;-9.494;2022-07-29T00:10:31;101195.25;;;21.06;55.29
57616;BME280;43816;52.054;-9.494;2022-07-29T00:10:41;101199.88;;;21.06;55.02
57616;BME280;43816;52.054;-9.494;2022-07-29T00:10:52;101193.56;;;21.05;54.96
57616;BME280;43816;52.054;-9.494;2022-07-29T00:11:02;101199.03;;;21.05;55.05
57616;BME280;43816;52.054;-9.494;2022-07-29T00:11:12;101196.31;;;21.05;55.10
57616;BME280;43816;52.054;-9.494;2022-07-29T00:11:23;101198.19;;;21.05;55.16
57616;BME280;43816;52.054;-9.494;2022-07-29T00:11:33;101196.31;;;21.05;54.93
57616;BME280;43816;52.054;-9.494;2022-07-29T00:11:43;101193.56;;;21.05;55.27
57616;BME280;43816;52.054;-9.494;2022-07-29T00:11:55;101196.31;;;21.05;55.10
57616;BME280;43816;52.054;-9.494;2022-07-29T00:12:06;101195.47;;;21.05;55.17
57616;BME280;43816;52.054;-9.494;2022-07-29T00:12:18;101199.03;;;21.05;55.11
57616;BME280;43816;52.054;-9.494;2022-07-29T00:12:28;101192.72;;;21.05;55.30
57616;BME280;43816;52.054;-9.494;2022-07-29T00:12:39;101194.59;;;21.04;55.11
57616;BME280;43816;52.054;-9.494;2022-07-29T00:12:49;101198.19;;;21.05;55.09
57616;BME280;43816;52.054;-9.494;2022-07-29T00:12:59;101189.13;;;21.04;54.91
57616;BME280;43816;52.054;-9.494;2022-07-29T00:13:10;101191.84;;;21.04;55.10
57616;BME280;43816;52.054;-9.494;2022-07-29T00:13:20;101199.22;;;21.04;55.08
57616;BME280;43816;52.054;-9.494;2022-07-29T00:13:31;101195.63;;;21.03;54.98
57616;BME280;43816;52.054;-9.494;2022-07-29T00:13:41;101192.03;;;21.03;55.19
57616;BME280;43816;52.054;-9.494;2022-07-29T00:13:51;101192.91;;;21.03;55.12
57616;BME280;43816;52.054;-9.494;2022-07-29T00:14:02;101192.03;;;21.03;55.08
57616;BME280;43816;52.054;-9.494;2022-07-29T00:14:12;101194.75;;;21.03;54.94
57616;BME280;43816;52.054;-9.494;2022-07-29T00:14:23;101191.19;;;21.02;55.08
57616;BME280;43816;52.054;-9.494;2022-07-29T00:14:33;101192.03;;;21.03;54.96
57616;BME280;43816;52.054;-9.494;2022-07-29T00:14:43;101189.28;;;21.03;54.91
57616;BME280;43816;52.054;-9.494;2022-07-29T00:14:54;101194.75;;;21.03;55.17
57616;BME280;43816;52.054;-9.494;2022-07-29T00:15:05;101188.44;;;21.02;54.91
57616;BME280;43816;52.054;-9.494;2022-07-29T00:15:15;101188.44;;;21.02;55.28
57616;BME280;43816;52.054;-9.494;2022-07-29T00:15:26;101195.63;;;21.03;55.34
57616;BME280;43816;52.054;-9.494;2022-07-29T00:15:36;101197.50;;;21.03;55.08
57616;BME280;43816;52.054;-9.494;2022-07-29T00:15:47;101196.66;;;21.02;55.19
57616;BME280;43816;52.054;-9.494;2022-07-29T00:15:57;101199.38;;;21.02;54.96
57616;BME280;43816;52.054;-9.494;2022-07-29T00:16:07;101193.06;;;21.02;54.95
57616;BME280;43816;52.054;-9.494;2022-07-29T00:16:18;101193.06;;;21.02;55.06
57616;BME280;43816;52.054;-9.494;2022-07-29T00:16:28;101197.66;;;21.01;55.12
57616;BME280;43816;52.054;-9.494;2022-07-29T00:16:38;101188.44;;;21.02;54.93
57616;BME280;43816;52.054;-9.494;2022-07-29T00:16:49;101187.78;;;21.00;55.17
57616;BME280;43816;52.054;-9.494;2022-07-29T00:16:59;101191.34;;;21.01;55.21
57616;BME280;43816;52.054;-9.494;2022-07-29T00:17:09;101185.88;;;21.01;55.22
57616;BME280;43816;52.054;-9.494;2022-07-29T00:17:19;101193.25;;;21.00;55.21
57616;BME280;43816;52.054;-9.494;2022-07-29T00:17:30;101196.81;;;21.01;55.38
57616;BME280;43816;52.054;-9.494;2022-07-29T00:17:40;101188.63;;;21.01;55.22
57616;BME280;43816;52.054;-9.494;2022-07-29T00:17:50;101186.72;;;21.01;55.09
57616;BME280;43816;52.054;-9.494;2022-07-29T00:18:01;101195.97;;;21.00;54.90
57616;BME280;43816;52.054;-9.494;2022-07-29T00:18:11;101193.25;;;21.00;55.14
57616;BME280;43816;52.054;-9.494;2022-07-29T00:18:21;101186.91;;;21.00;55.29
57616;BME280;43816;52.054;-9.494;2022-07-29T00:18:32;101192.53;;;20.98;54.98
57616;BME280;43816;52.054;-9.494;2022-07-29T00:18:42;101192.53;;;20.98;55.15
57616;BME280;43816;52.054;-9.494;2022-07-29T00:18:53;101191.53;;;20.99;55.16
57616;BME280;43816;52.054;-9.494;2022-07-29T00:19:04;101187.94;;;20.99;55.35
57616;BME280;43816;52.054;-9.494;2022-07-29T00:19:14;101189.81;;;20.98;55.14
57616;BME280;43816;52.054;-9.494;2022-07-29T00:19:25;101191.69;;;20.98;55.31
57616;BME280;43816;52.054;-9.494;2022-07-29T00:19:35;101188.13;;;20.97;55.06
57616;BME280;43816;52.054;-9.494;2022-07-29T00:19:45;101187.28;;;20.97;54.99
57616;BME280;43816;52.054;-9.494;2022-07-29T00:19:55;101190.84;;;20.97;55.23
57616;BME280;43816;52.054;-9.494;2022-07-29T00:20:06;101181.81;;;20.97;55.24
57616;BME280;43816;52.054;-9.494;2022-07-29T00:20:17;101189.13;;;20.96;55.06
57616;BME280;43816;52.054;-9.494;2022-07-29T00:20:27;101185.38;;;20.97;55.06
57616;BME280;43816;52.054;-9.494;2022-07-29T00:20:37;101188.97;;;20.98;55.31
57616;BME280;43816;52.054;-9.494;2022-07-29T00:20:48;101186.22;;;20.98;55.20
57616;BME280;43816;52.054;-9.494;2022-07-29T00:20:58;101185.38;;;20.97;55.46
57616;BME280;43816;52.054;-9.494;2022-07-29T00:21:09;101191.69;;;20.98;55.16
57616;BME280;43816;52.054;-9.494;2022-07-29T00:21:19;101189.81;;;20.98;55.50
57616;BME280;43816;52.054;-9.494;2022-07-29T00:21:29;101190.00;;;20.97;55.24
57616;BME280;43816;52.054;-9.494;2022-07-29T00:21:40;101187.94;;;20.99;55.04
57616;BME280;43816;52.054;-9.494;2022-07-29T00:21:50;101188.13;;;20.97;55.06
57616;BME280;43816;52.054;-9.494;2022-07-29T00:22:01;101188.13;;;20.97;55.17
57616;BME280;43816;52.054;-9.494;2022-07-29T00:22:11;101189.13;;;20.96;55.18
57616;BME280;43816;52.054;-9.494;2022-07-29T00:22:22;101190.00;;;20.97;55.48
57616;BME280;43816;52.054;-9.494;2022-07-29T00:22:32;101188.13;;;20.97;55.20
57616;BME280;43816;52.054;-9.494;2022-07-29T00:22:42;101194.63;;;20.96;55.19
57616;BME280;43816;52.054;-9.494;2022-07-29T00:22:53;101193.59;;;20.97;54.90
57616;BME280;43816;52.054;-9.494;2022-07-29T00:23:03;101195.50;;;20.97;55.30
57616;BME280;43816;52.054;-9.494;2022-07-29T00:23:13;101194.63;;;20.96;54.97
57616;BME280;43816;52.054;-9.494;2022-07-29T00:23:24;101187.47;;;20.95;55.23
57616;BME280;43816;52.054;-9.494;2022-07-29T00:23:34;101189.13;;;20.96;55.26
57616;BME280;43816;52.054;-9.494;2022-07-29T00:23:44;101194.63;;;20.96;55.39
57616;BME280;43816;52.054;-9.494;2022-07-29T00:23:54;101193.59;;;20.97;55.14
57616;BME280;43816;52.054;-9.494;2022-07-29T00:24:05;101194.63;;;20.96;55.04
57616;BME280;43816;52.054;-9.494;2022-07-29T00:24:15;101189.31;;;20.95;55.25
57616;BME280;43816;52.054;-9.494;2022-07-29T00:24:26;101187.47;;;20.95;55.26
57616;BME280;43816;52.054;-9.494;2022-07-29T00:24:36;101194.78;;;20.95;55.50
57616;BME280;43816;52.054;-9.494;2022-07-29T00:24:48;101192.94;;;20.95;55.23
57616;BME280;43816;52.054;-9.494;2022-07-29T00:24:58;101203.00;;;20.95;55.14
57616;BME280;43816;52.054;-9.494;2022-07-29T00:25:08;101198.41;;;20.95;55.48
57616;BME280;43816;52.054;-9.494;2022-07-29T00:25:19;101196.50;;;20.96;55.27
57616;BME280;43816;52.054;-9.494;2022-07-29T00:25:29;101198.41;;;20.95;55.10
57616;BME280;43816;52.054;-9.494;2022-07-29T00:25:40;101198.41;;;20.95;55.28
57616;BME280;43816;52.054;-9.494;2022-07-29T00:25:50;101200.25;;;20.95;54.94
57616;BME280;43816;52.054;-9.494;2022-07-29T00:26:00;101196.69;;;20.94;55.28
57616;BME280;43816;52.054;-9.494;2022-07-29T00:26:11;101203.88;;;20.95;55.25
57616;BME280;43816;52.054;-9.494;2022-07-29T00:26:21;101203.88;;;20.95;55.24
57616;BME280;43816;52.054;-9.494;2022-07-29T00:26:31;101201.13;;;20.95;55.16
57616;BME280;43816;52.054;-9.494;2022-07-29T00:26:42;101207.63;;;20.94;54.92
57616;BME280;43816;52.054;-9.494;2022-07-29T00:26:52;101203.16;;;20.93;55.18
57616;BME280;43816;52.054;-9.494;2022-07-29T00:27:02;101206.78;;;20.94;55.33
57616;BME280;43816;52.054;-9.494;2022-07-29T00:27:13;101205.91;;;20.93;55.13
57616;BME280;43816;52.054;-9.494;2022-07-29T00:27:23;101206.06;;;20.92;55.19
57616;BME280;43816;52.054;-9.494;2022-07-29T00:27:34;101205.06;;;20.93;55.09
57616;BME280;43816;52.054;-9.494;2022-07-29T00:27:45;101207.78;;;20.93;54.97
57616;BME280;43816;52.054;-9.494;2022-07-29T00:27:55;101205.06;;;20.93;55.54
57616;BME280;43816;52.054;-9.494;2022-07-29T00:28:05;101206.06;;;20.92;55.55
57616;BME280;43816;52.054;-9.494;2022-07-29T00:28:16;101203.16;;;20.93;54.96
57616;BME280;43816;52.054;-9.494;2022-07-29T00:28:26;101207.78;;;20.93;55.21
57616;BME280;43816;52.054;-9.494;2022-07-29T00:28:36;101210.53;;;20.93;55.01
57616;BME280;43816;52.054;-9.494;2022-07-29T00:28:46;101208.81;;;20.92;55.25
57616;BME280;43816;52.054;-9.494;2022-07-29T00:28:58;101210.69;;;20.91;55.33
57616;BME280;43816;52.054;-9.494;2022-07-29T00:29:09;101207.13;;;20.91;55.05
57616;BME280;43816;52.054;-9.494;2022-07-29T00:29:19;101207.97;;;20.91;55.07
57616;BME280;43816;52.054;-9.494;2022-07-29T00:29:29;101205.22;;;20.91;55.24
57616;BME280;43816;52.054;-9.494;2022-07-29T00:29:40;101208.81;;;20.92;55.19
57616;BME280;43816;52.054;-9.494;2022-07-29T00:29:50;101206.06;;;20.92;55.18
57616;BME280;43816;52.054;-9.494;2022-07-29T00:30:00;101205.22;;;20.91;54.87
57616;BME280;43816;52.054;-9.494;2022-07-29T00:30:11;101207.97;;;20.91;55.11
57616;BME280;43816;52.054;-9.494;2022-07-29T00:30:22;101207.97;;;20.91;55.21
57616;BME280;43816;52.054;-9.494;2022-07-29T00:30:32;101207.97;;;20.91;55.29
57616;BME280;43816;52.054;-9.494;2022-07-29T00:30:43;101207.97;;;20.91;55.38
57616;BME280;43816;52.054;-9.494;2022-07-29T00:30:53;101205.22;;;20.91;55.12
57616;BME280;43816;52.054;-9.494;2022-07-29T00:31:03;101204.22;;;20.92;55.06
57616;BME280;43816;52.054;-9.494;2022-07-29T00:31:13;101200.81;;;20.90;55.20
57616;BME280;43816;52.054;-9.494;2022-07-29T00:31:24;101202.50;;;20.91;55.22
57616;BME280;43816;52.054;-9.494;2022-07-29T00:31:34;101197.03;;;20.91;54.97
57616;BME280;43816;52.054;-9.494;2022-07-29T00:31:45;101204.38;;;20.91;55.19
57616;BME280;43816;52.054;-9.494;2022-07-29T00:31:55;101200.81;;;20.90;55.22
57616;BME280;43816;52.054;-9.494;2022-07-29T00:32:05;101202.50;;;20.91;55.21
57616;BME280;43816;52.054;-9.494;2022-07-29T00:32:16;101209.00;;;20.90;55.22
57616;BME280;43816;52.054;-9.494;2022-07-29T00:32:26;101207.97;;;20.91;55.26
57616;BME280;43816;52.054;-9.494;2022-07-29T00:32:36;101206.28;;;20.90;55.37
57616;BME280;43816;52.054;-9.494;2022-07-29T00:32:47;101206.28;;;20.90;55.18
57616;BME280;43816;52.054;-9.494;2022-07-29T00:32:57;101200.81;;;20.90;55.04
57616;BME280;43816;52.054;-9.494;2022-07-29T00:33:07;101210.88;;;20.89;54.97
57616;BME280;43816;52.054;-9.494;2022-07-29T00:33:17;101204.56;;;20.89;55.05
57616;BME280;43816;52.054;-9.494;2022-07-29T00:33:28;101199.09;;;20.89;55.31
57616;BME280;43816;52.054;-9.494;2022-07-29T00:33:39;101200.97;;;20.88;55.49
57616;BME280;43816;52.054;-9.494;2022-07-29T00:33:49;101209.19;;;20.88;55.32
57616;BME280;43816;52.054;-9.494;2022-07-29T00:33:59;101212.75;;;20.89;55.22
57616;BME280;43816;52.054;-9.494;2022-07-29T00:34:10;101208.31;;;20.88;55.15
57616;BME280;43816;52.054;-9.494;2022-07-29T00:34:20;101214.66;;;20.88;55.19
57616;BME280;43816;52.054;-9.494;2022-07-29T00:34:30;101205.56;;;20.88;54.89
57616;BME280;43816;52.054;-9.494;2022-07-29T00:34:41;101210.03;;;20.89;55.24
57616;BME280;43816;52.054;-9.494;2022-07-29T00:34:51;101207.28;;;20.89;54.80
57616;BME280;43816;52.054;-9.494;2022-07-29T00:35:01;101206.44;;;20.88;55.11
57616;BME280;43816;52.054;-9.494;2022-07-29T00:35:12;101205.56;;;20.88;54.85
57616;BME280;43816;52.054;-9.494;2022-07-29T00:35:22;101207.47;;;20.87;55.31
57616;BME280;43816;52.054;-9.494;2022-07-29T00:35:32;101209.19;;;20.88;55.21
57616;BME280;43816;52.054;-9.494;2022-07-29T00:35:43;101206.63;;;20.87;55.18
57616;BME280;43816;52.054;-9.494;2022-07-29T00:35:53;101208.31;;;20.88;55.06
57616;BME280;43816;52.054;-9.494;2022-07-29T00:36:04;101203.88;;;20.87;55.14
57616;BME280;43816;52.054;-9.494;2022-07-29T00:36:14;101201.16;;;20.87;55.24
57616;BME280;43816;52.054;-9.494;2022-07-29T00:36:24;101203.88;;;20.87;55.16
57616;BME280;43816;52.054;-9.494;2022-07-29T00:36:34;101202.00;;;20.87;55.04
57616;BME280;43816;52.054;-9.494;2022-07-29T00:36:45;101201.16;;;20.87;55.14
57616;BME280;43816;52.054;-9.494;2022-07-29T00:36:55;101196.53;;;20.87;55.39
57616;BME280;43816;52.054;-9.494;2022-07-29T00:37:06;101201.16;;;20.87;55.18
57616;BME280;43816;52.054;-9.494;2022-07-29T00:37:16;101193.13;;;20.85;55.25
57616;BME280;43816;52.054;-9.494;2022-07-29T00:37:26;101201.16;;;20.87;54.99
57616;BME280;43816;52.054;-9.494;2022-07-29T00:37:36;101198.59;;;20.85;55.25
57616;BME280;43816;52.054;-9.494;2022-07-29T00:37:47;101197.72;;;20.85;55.28
57616;BME280;43816;52.054;-9.494;2022-07-29T00:37:57;101200.28;;;20.86;55.43
57616;BME280;43816;52.054;-9.494;2022-07-29T00:38:07;101211.22;;;20.86;55.16
57616;BME280;43816;52.054;-9.494;2022-07-29T00:38:19;101204.06;;;20.85;54.94
57616;BME280;43816;52.054;-9.494;2022-07-29T00:38:29;101202.34;;;20.84;55.34
57616;BME280;43816;52.054;-9.494;2022-07-29T00:38:40;101202.34;;;20.84;55.03
57616;BME280;43816;52.054;-9.494;2022-07-29T00:38:50;101197.91;;;20.83;55.12
57616;BME280;43816;52.054;-9.494;2022-07-29T00:39:01;101195.19;;;20.83;55.08
57616;BME280;43816;52.054;-9.494;2022-07-29T00:39:11;101205.06;;;20.84;55.41
57616;BME280;43816;52.054;-9.494;2022-07-29T00:39:22;101198.75;;;20.84;55.19
57616;BME280;43816;52.054;-9.494;2022-07-29T00:39:32;101198.75;;;20.84;55.35
57616;BME280;43816;52.054;-9.494;2022-07-29T00:39:42;101205.91;;;20.85;55.06
57616;BME280;43816;52.054;-9.494;2022-07-29T00:39:53;101197.03;;;20.83;55.22
57616;BME280;43816;52.054;-9.494;2022-07-29T00:40:03;101193.47;;;20.82;54.98
57616;BME280;43816;52.054;-9.494;2022-07-29T00:40:14;101202.69;;;20.81;55.15
57616;BME280;43816;52.054;-9.494;2022-07-29T00:40:24;101191.75;;;20.81;55.04
57616;BME280;43816;52.054;-9.494;2022-07-29T00:40:34;101192.63;;;20.82;55.72
57616;BME280;43816;52.054;-9.494;2022-07-29T00:40:45;101196.38;;;20.81;55.14
57616;BME280;43816;52.054;-9.494;2022-07-29T00:40:56;101196.38;;;20.81;55.23
57616;BME280;43816;52.054;-9.494;2022-07-29T00:41:06;101206.47;;;20.80;55.23
57616;BME280;43816;52.054;-9.494;2022-07-29T00:41:17;101205.59;;;20.80;55.24
57616;BME280;43816;52.054;-9.494;2022-07-29T00:41:28;101197.22;;;20.81;55.08
57616;BME280;43816;52.054;-9.494;2022-07-29T00:41:38;101199.94;;;20.81;55.35
57616;BME280;43816;52.054;-9.494;2022-07-29T00:41:49;101196.38;;;20.81;55.31
57616;BME280;43816;52.054;-9.494;2022-07-29T00:42:02;101199.09;;;20.81;55.22
57616;BME280;43816;52.054;-9.494;2022-07-29T00:42:12;101201.00;;;20.80;55.40
57616;BME280;43816;52.054;-9.494;2022-07-29T00:42:23;101201.84;;;20.81;55.24
57616;BME280;43816;52.054;-9.494;2022-07-29T00:42:47;101198.25;;;20.80;55.16
57616;BME280;43816;52.054;-9.494;2022-07-29T00:42:57;101196.38;;;20.81;55.15
57616;BME280;43816;52.054;-9.494;2022-07-29T00:43:07;101201.84;;;20.81;55.08
57616;BME280;43816;52.054;-9.494;2022-07-29T00:43:18;101202.69;;;20.81;55.28
57616;BME280;43816;52.054;-9.494;2022-07-29T00:43:28;101207.31;;;20.81;55.08
57616;BME280;43816;52.054;-9.494;2022-07-29T00:43:39;101200.13;;;20.80;55.22
57616;BME280;43816;52.054;-9.494;2022-07-29T00:43:49;101194.66;;;20.80;55.46
57616;BME280;43816;52.054;-9.494;2022-07-29T00:43:59;101206.47;;;20.80;55.48
57616;BME280;43816;52.054;-9.494;2022-07-29T00:44:09;101202.00;;;20.79;55.29
57616;BME280;43816;52.054;-9.494;2022-07-29T00:44:20;101202.19;;;20.78;55.15
57616;BME280;43816;52.054;-9.494;2022-07-29T00:44:30;101195.03;;;20.77;55.41
57616;BME280;43816;52.054;-9.494;2022-07-29T00:44:41;101202.34;;;20.76;55.40
57616;BME280;43816;52.054;-9.494;2022-07-29T00:44:52;101191.59;;;20.75;55.18
57616;BME280;43816;52.054;-9.494;2022-07-29T00:45:02;101199.63;;;20.76;55.48
57616;BME280;43816;52.054;-9.494;2022-07-29T00:45:13;101195.03;;;20.77;55.31
57616;BME280;43816;52.054;-9.494;2022-07-29T00:45:24;101195.03;;;20.77;55.32
57616;BME280;43816;52.054;-9.494;2022-07-29T00:45:34;101189.56;;;20.77;55.16
57616;BME280;43816;52.054;-9.494;2022-07-29T00:46:05;101193.47;;;20.74;55.29
57616;BME280;43816;52.054;-9.494;2022-07-29T00:46:15;101192.28;;;20.77;55.21
57616;BME280;43816;52.054;-9.494;2022-07-29T00:46:25;101195.03;;;20.77;55.29
57616;BME280;43816;52.054;-9.494;2022-07-29T00:46:46;101194.16;;;20.76;55.37
57616;BME280;43816;52.054;-9.494;2022-07-29T00:46:56;101194.16;;;20.76;55.31
57616;BME280;43816;52.054;-9.494;2022-07-29T00:47:07;101188.19;;;20.73;55.44
57616;BME280;43816;52.054;-9.494;2022-07-29T00:47:18;101196.22;;;20.74;55.28
57616;BME280;43816;52.054;-9.494;2022-07-29T00:47:28;101192.63;;;20.74;55.31
57616;BME280;43816;52.054;-9.494;2022-07-29T00:47:39;101197.06;;;20.75;55.38
57616;BME280;43816;52.054;-9.494;2022-07-29T00:47:49;101189.91;;;20.74;55.47
57616;BME280;43816;52.054;-9.494;2022-07-29T00:48:00;101189.03;;;20.73;55.39
57616;BME280;43816;52.054;-9.494;2022-07-29T00:48:10;101184.44;;;20.74;55.33
57616;BME280;43816;52.054;-9.494;2022-07-29T00:48:20;101188.19;;;20.73;55.01
57616;BME280;43816;52.054;-9.494;2022-07-29T00:48:31;101188.19;;;20.73;55.31
57616;BME280;43816;52.054;-9.494;2022-07-29T00:48:41;101191.75;;;20.73;55.23
57616;BME280;43816;52.054;-9.494;2022-07-29T00:48:51;101189.91;;;20.74;55.33
57616;BME280;43816;52.054;-9.494;2022-07-29T00:49:02;101193.66;;;20.73;55.49
57616;BME280;43816;52.054;-9.494;2022-07-29T00:49:12;101189.91;;;20.74;55.34
57616;BME280;43816;52.054;-9.494;2022-07-29T00:49:23;101184.44;;;20.74;55.44
57616;BME280;43816;52.054;-9.494;2022-07-29T00:49:34;101185.44;;;20.73;55.36
57616;BME280;43816;52.054;-9.494;2022-07-29T00:49:44;101191.94;;;20.72;55.07
57616;BME280;43816;52.054;-9.494;2022-07-29T00:49:55;101187.34;;;20.72;55.37
57616;BME280;43816;52.054;-9.494;2022-07-29T00:50:06;101186.47;;;20.72;55.33
57616;BME280;43816;52.054;-9.494;2022-07-29T00:50:17;101191.94;;;20.72;55.03
57616;BME280;43816;52.054;-9.494;2022-07-29T00:50:28;101194.66;;;20.72;55.35
57616;BME280;43816;52.054;-9.494;2022-07-29T00:50:38;101188.34;;;20.71;55.30
57616;BME280;43816;52.054;-9.494;2022-07-29T00:50:49;101191.94;;;20.72;55.39
57616;BME280;43816;52.054;-9.494;2022-07-29T00:51:01;101186.47;;;20.72;55.25
57616;BME280;43816;52.054;-9.494;2022-07-29T00:51:13;101190.25;;;20.70;55.36
57616;BME280;43816;52.054;-9.494;2022-07-29T00:51:26;101184.78;;;20.70;55.30
57616;BME280;43816;52.054;-9.494;2022-07-29T00:51:37;101191.94;;;20.72;55.10
57616;BME280;43816;52.054;-9.494;2022-07-29T00:51:48;101186.47;;;20.72;55.20
57616;BME280;43816;52.054;-9.494;2022-07-29T00:52:04;101181.19;;;20.70;55.07
57616;BME280;43816;52.054;-9.494;2022-07-29T00:52:14;101180.16;;;20.71;55.27
57616;BME280;43816;52.054;-9.494;2022-07-29T00:52:25;101177.41;;;20.71;55.49
57616;BME280;43816;52.054;-9.494;2022-07-29T00:52:36;101187.50;;;20.70;55.19
57616;BME280;43816;52.054;-9.494;2022-07-29T00:52:47;101181.00;;;20.72;55.24
57616;BME280;43816;52.054;-9.494;2022-07-29T00:52:58;101186.66;;;20.70;55.00
57616;BME280;43816;52.054;-9.494;2022-07-29T00:53:08;101177.59;;;20.69;55.22
57616;BME280;43816;52.054;-9.494;2022-07-29T00:53:21;101185.63;;;20.71;55.07
57616;BME280;43816;52.054;-9.494;2022-07-29T00:53:33;101176.56;;;20.70;55.19
57616;BME280;43816;52.054;-9.494;2022-07-29T00:53:44;101172.13;;;20.69;55.17
57616;BME280;43816;52.054;-9.494;2022-07-29T00:53:54;101181.38;;;20.68;55.31
57616;BME280;43816;52.054;-9.494;2022-07-29T00:54:05;101181.38;;;20.68;55.29
57616;BME280;43816;52.054;-9.494;2022-07-29T00:54:15;101175.91;;;20.68;55.31
57616;BME280;43816;52.054;-9.494;2022-07-29T00:54:26;101184.09;;;20.68;55.25
57616;BME280;43816;52.054;-9.494;2022-07-29T00:54:38;101184.09;;;20.68;55.34
57616;BME280;43816;52.054;-9.494;2022-07-29T00:54:48;101176.75;;;20.69;55.17
57616;BME280;43816;52.054;-9.494;2022-07-29T00:54:59;101178.81;;;20.67;55.24
57616;BME280;43816;52.054;-9.494;2022-07-29T00:55:12;101174.19;;;20.67;55.23